Aberdovey, United Kingdom
Current Conditions -  °F | °C
As of 3:50 PM on Friday 24 Oct 2014 (Local Time) from EGOV Reporting Station
Scattered Clouds Scattered Clouds  
Wind Chill: 55°   Ceiling: Unl
Heat Index: 55°   Visibility: 6mi
Dew Point: 45°   Wind: 18mph
Humidity: 67%   Direction: 230°SW
Pressure: 29.85"   Gusts: NA
Location:  52.55°N, 4.05°W
Report Text: EGOV 241450Z 23016KT 9999 FEW030 SCT060 13/07 Q1011 BLU NOSIG
Loading
Personal Weather Stations






























Interactive Weather Map New forecast layout! Learn more

10-Day Weather Forecast

Advertisements
Track Severe Weather on mobile